Theologos P . — SZNB — position and weather

sailwx.info

Track history (hours):
 
Tides and Currents Weather Stations Pressure Air Temp Water Temp Dewpoint Dewpoint Depression Visibility Wind Speed Wind Dir Waves Ship Positions

Theologos P .

Last reported at 2017-Oct-20 00:00 UTC. Time now 2017-Oct-20 00:03 UTC.
Position N 37°28' E 025°20'.

Length 118 m; draft 5 m.

Type: Passenger vessel. MMSI: 240521000.

Date/timePositionNaut miles runAvg speedWind from/ knotsBaromVisibWave heightAir tempDewpointWater temp
2017-Oct-20 00:00N 37°28' E 025°20'0 0.0
2017-Oct-19 23:30N 37°28' E 025°20'0 0.0
2017-Oct-19 23:00N 37°28' E 025°20'0 0.0
2017-Oct-19 22:30N 37°28' E 025°20'0 0.0
2017-Oct-19 22:00N 37°28' E 025°20'0 0.0
2017-Oct-19 21:30N 37°28' E 025°20'0 0.0
2017-Oct-19 21:00N 37°28' E 025°20'0 0.0
2017-Oct-19 20:30N 37°28' E 025°20'0 0.0
2017-Oct-19 20:00N 37°28' E 025°20'1 1.7
2017-Oct-19 19:17N 37°28' E 025°18'412.8
2017-Oct-19 19:00N 37°30' E 025°14'4 9.0
2017-Oct-19 18:30N 37°32' E 025°09'815.4
2017-Oct-19 18:01N 37°36' E 025°01'918.8
2017-Oct-19 17:31N 37°43' E 024°53'3914.9
2017-Oct-19 14:53N 37°59' E 024°08'6 1.0
2017-Oct-19 09:13N 38°01' E 024°01'416.6
2017-Oct-19 09:00N 38°00' E 024°05'1018.9
2017-Oct-19 08:29N 37°57' E 024°17'2915.0
2017-Oct-19 06:31N 37°45' E 024°51'019.9
2017-Oct-19 06:31N 37°45' E 024°51'1019.3
2017-Oct-19 06:00N 37°38' E 024°60'918.4
2017-Oct-19 05:31N 37°32' E 025°09'3 6.6
2017-Oct-19 05:00N 37°30' E 025°12'713.1
2017-Oct-19 04:30N 37°28' E 025°20'0 0.0
2017-Oct-19 04:00N 37°28' E 025°20'0 0.0
2017-Oct-19 03:30N 37°28' E 025°20'0 0.0
2017-Oct-19 03:00N 37°28' E 025°20'0 0.0
2017-Oct-19 02:30N 37°28' E 025°20'0 0.0
2017-Oct-19 02:00N 37°28' E 025°20'0 0.0
2017-Oct-19 01:30N 37°28' E 025°20'0 0.0
2017-Oct-19 01:00N 37°28' E 025°20'0 0.0
2017-Oct-19 00:30N 37°28' E 025°20'0 0.0
2017-Oct-19 00:00N 37°28' E 025°20'0 0.0
2017-Oct-18 23:30N 37°28' E 025°20'0 0.0
2017-Oct-18 23:00N 37°28' E 025°20'0 0.0
2017-Oct-18 22:30N 37°28' E 025°20'0 0.0
2017-Oct-18 22:00N 37°28' E 025°20'0 0.0
2017-Oct-18 21:30N 37°28' E 025°20'0 0.0
2017-Oct-18 21:00N 37°28' E 025°20'0 0.0
2017-Oct-18 20:30N 37°28' E 025°20'0 0.0
2017-Oct-18 20:01N 37°28' E 025°20'0 0.0
2017-Oct-18 19:30N 37°28' E 025°20'713.6
2017-Oct-18 19:00N 37°31' E 025°12'3 6.6
2017-Oct-18 18:31N 37°32' E 025°08'918.6
2017-Oct-18 18:00N 37°38' E 024°59'918.1
2017-Oct-18 17:30N 37°45' E 024°51'3314.3
2017-Oct-18 15:10N 37°58' E 024°13'418.0
2017-Oct-18 14:58N 37°60' E 024°08'6 1.1
2017-Oct-18 09:18N 38°01' E 024°01'414.4
2017-Oct-18 09:00N 38°00' E 024°06'1018.8
2017-Oct-18 08:30N 37°57' E 024°17'2914.8
2017-Oct-18 06:32N 37°45' E 024°51'120.1
2017-Oct-18 06:30N 37°44' E 024°51'1019.4
2017-Oct-18 06:00N 37°38' E 024°60'918.2
2017-Oct-18 05:30N 37°32' E 025°09'4 7.8
2017-Oct-18 05:00N 37°30' E 025°13'611.2
2017-Oct-18 04:31N 37°28' E 025°20'0 0.0
2017-Oct-18 04:00N 37°28' E 025°20'0 0.0
2017-Oct-18 03:31N 37°28' E 025°20'0 0.0
2017-Oct-18 03:01N 37°28' E 025°20'0 0.0
2017-Oct-18 02:31N 37°28' E 025°20'0 0.0
2017-Oct-18 02:01N 37°28' E 025°20'0 0.0
2017-Oct-18 01:30N 37°28' E 025°20'0 0.0
2017-Oct-18 01:00N 37°28' E 025°20'0 0.0
2017-Oct-18 00:30N 37°28' E 025°20'0 0.0
2017-Oct-18 00:01N 37°28' E 025°20'0 0.0
2017-Oct-17 23:30N 37°28' E 025°20'0 0.0
2017-Oct-17 23:00N 37°28' E 025°20'0 0.0
2017-Oct-17 22:30N 37°28' E 025°20'0 0.0
2017-Oct-17 22:01N 37°28' E 025°20'0 0.0
2017-Oct-17 21:30N 37°28' E 025°20'0 0.0
2017-Oct-17 21:01N 37°28' E 025°20'0 0.0
2017-Oct-17 20:30N 37°28' E 025°20'0 0.0
2017-Oct-17 20:00N 37°28' E 025°20'1 2.4
2017-Oct-17 19:30N 37°28' E 025°18'816.1
2017-Oct-17 19:00N 37°32' E 025°09'2 3.6
2017-Oct-17 18:31N 37°33' E 025°07'1019.3
2017-Oct-17 18:00N 37°39' E 024°58'4815.4
2017-Oct-17 14:54N 38°01' E 024°04'3 0.5
2017-Oct-17 09:21N 38°01' E 024°01'4314.9
2017-Oct-17 06:30N 37°45' E 024°51'1018.9
2017-Oct-17 05:59N 37°38' E 024°59'918.4
2017-Oct-17 05:31N 37°32' E 025°08'4 8.3
2017-Oct-17 05:01N 37°30' E 025°12'612.7
2017-Oct-17 04:30N 37°28' E 025°19'0 0.0
2017-Oct-17 04:00N 37°28' E 025°19'0 0.0
2017-Oct-17 03:30N 37°28' E 025°19'0 0.0
2017-Oct-17 03:00N 37°28' E 025°19'0 0.0
2017-Oct-17 02:30N 37°28' E 025°19'0 0.0
2017-Oct-17 02:00N 37°28' E 025°19'0 0.0
2017-Oct-17 01:30N 37°28' E 025°19'0 0.0
2017-Oct-17 01:00N 37°28' E 025°19'0 0.0
2017-Oct-17 00:30N 37°28' E 025°19'0 0.0
2017-Oct-17 00:00N 37°28' E 025°19'0 0.0
2017-Oct-16 23:30N 37°28' E 025°19'0 0.0
2017-Oct-16 23:00N 37°28' E 025°19'0 0.0
2017-Oct-16 22:30N 37°28' E 025°19'0 0.0
2017-Oct-16 22:00N 37°28' E 025°19'0 0.0
2017-Oct-16 21:30N 37°28' E 025°19'0 0.0
2017-Oct-16 21:00N 37°28' E 025°19'0 0.0
2017-Oct-16 20:30N 37°28' E 025°19'0 0.0
2017-Oct-16 20:00N 37°28' E 025°19'0 0.0
2017-Oct-16 19:30N 37°28' E 025°19'2 4.5
2017-Oct-16 19:01N 37°29' E 025°17'713.8
2017-Oct-16 18:30N 37°32' E 025°09'713.0
2017-Oct-16 18:00N 37°36' E 025°02'1019.3
2017-Oct-16 17:30N 37°42' E 024°54'3815.0
2017-Oct-16 15:00N 37°59' E 024°11'8 1.5
2017-Oct-16 09:22N 38°01' E 024°01'615.5
2017-Oct-16 09:00N 37°60' E 024°07'1118.5
2017-Oct-16 08:24N 37°56' E 024°21'2613.8
2017-Oct-16 06:31N 37°45' E 024°51'019.5
2017-Oct-16 06:31N 37°45' E 024°51'1018.8
2017-Oct-16 06:00N 37°38' E 024°59'918.0
2017-Oct-16 05:31N 37°32' E 025°08'4 7.2
2017-Oct-16 05:01N 37°30' E 025°12'713.6
2017-Oct-16 04:30N 37°28' E 025°20'0 0.0
2017-Oct-16 04:00N 37°28' E 025°20'0 0.0
2017-Oct-16 03:31N 37°28' E 025°20'0 0.0
2017-Oct-16 03:00N 37°28' E 025°20'0 0.0
2017-Oct-16 02:30N 37°28' E 025°20'0 0.0
2017-Oct-16 02:00N 37°28' E 025°20'0 0.0
2017-Oct-16 01:30N 37°28' E 025°20'0 0.0
2017-Oct-16 01:00N 37°28' E 025°20'0 0.0
2017-Oct-16 00:30N 37°28' E 025°20'0 0.0
2017-Oct-16 00:00N 37°28' E 025°20'0 0.0
2017-Oct-15 23:30N 37°28' E 025°20'0 0.0
2017-Oct-15 23:00N 37°28' E 025°20'0 0.0
2017-Oct-15 22:30N 37°28' E 025°20'0 0.0
2017-Oct-15 22:00N 37°28' E 025°20'0 0.0
2017-Oct-15 21:30N 37°28' E 025°20'0 0.0
2017-Oct-15 21:00N 37°28' E 025°20'0 0.0
2017-Oct-15 20:30N 37°28' E 025°20'0 0.8
2017-Oct-15 20:01N 37°28' E 025°19'917.8
2017-Oct-15 19:31N 37°32' E 025°09'510.1
2017-Oct-15 19:00N 37°34' E 025°03'1019.4
2017-Oct-15 18:30N 37°41' E 024°55'4115.4
2017-Oct-15 15:52N 37°59' E 024°09'7 6.3
2017-Oct-15 14:49N 38°01' E 024°01'1417.1
2017-Oct-15 14:00N 37°57' E 024°17'2913.9
2017-Oct-15 11:55N 37°45' E 024°51'918.4
2017-Oct-15 11:27N 37°39' E 024°58'817.9
2017-Oct-15 11:00N 37°33' E 025°06'3 6.2
2017-Oct-15 10:30N 37°32' E 025°09'815.6
2017-Oct-15 10:00N 37°28' E 025°18'2 3.0
2017-Oct-15 09:30N 37°28' E 025°20'0 0.0
2017-Oct-15 09:00N 37°28' E 025°20'0 0.0
2017-Oct-15 08:30N 37°28' E 025°20'0 0.0
2017-Oct-15 08:00N 37°28' E 025°20'0 0.0
2017-Oct-15 07:30N 37°28' E 025°20'0 0.0
2017-Oct-15 07:00N 37°28' E 025°20'0 0.0
2017-Oct-15 06:30N 37°28' E 025°20'0 0.0
2017-Oct-15 06:00N 37°28' E 025°20'0 0.0
2017-Oct-15 05:30N 37°28' E 025°20'0 0.0
2017-Oct-15 05:00N 37°28' E 025°20'0 0.0
2017-Oct-15 04:30N 37°28' E 025°20'0 0.0
2017-Oct-15 04:00N 37°28' E 025°20'0 0.0
2017-Oct-15 03:30N 37°28' E 025°20'0 0.0
2017-Oct-15 03:00N 37°28' E 025°20'0 0.0
2017-Oct-15 02:30N 37°28' E 025°20'0 0.0
2017-Oct-15 02:00N 37°28' E 025°20'0 0.0
2017-Oct-15 01:30N 37°28' E 025°20'0 0.0
2017-Oct-15 01:00N 37°28' E 025°20'0 0.0
2017-Oct-15 00:30N 37°28' E 025°20'0 0.0
2017-Oct-15 00:00N 37°28' E 025°20'0 0.0
2017-Oct-14 23:30N 37°28' E 025°20'0 0.0
2017-Oct-14 23:00N 37°28' E 025°20'0 0.0
2017-Oct-14 22:30N 37°28' E 025°20'0 0.0
2017-Oct-14 22:00N 37°28' E 025°20'0 0.0
2017-Oct-14 21:30N 37°28' E 025°20'0 0.0
2017-Oct-14 21:00N 37°28' E 025°20'0 0.0
2017-Oct-14 20:30N 37°28' E 025°20'0 0.0
2017-Oct-14 20:01N 37°28' E 025°20'0 0.1
2017-Oct-14 19:31N 37°28' E 025°20'815.2
2017-Oct-14 19:00N 37°31' E 025°11'4 7.6
2017-Oct-14 18:30N 37°33' E 025°07'1419.2
2017-Oct-14 17:47N 37°42' E 024°54'4115.1
2017-Oct-14 15:05N 37°60' E 024°07'218.5
2017-Oct-14 15:00N 38°00' E 024°05'4 4.2
2017-Oct-14 14:08N 38°01' E 024°01'1 7.7
2017-Oct-14 14:00N 38°01' E 024°02'1119.3
2017-Oct-14 13:28N 37°58' E 024°14'3115.3
2017-Oct-14 11:25N 37°45' E 024°51'919.0
2017-Oct-14 10:57N 37°39' E 024°58'818.3
2017-Oct-14 10:30N 37°33' E 025°06'4 7.8
2017-Oct-14 10:01N 37°31' E 025°10'815.8
2017-Oct-14 09:31N 37°28' E 025°19'0 0.0
2017-Oct-14 09:00N 37°28' E 025°19'715.0
2017-Oct-14 08:30N 37°31' E 025°11'4 8.5
2017-Oct-14 08:00N 37°33' E 025°06'5316.5
2017-Oct-14 04:48N 37°60' E 024°08'619.0
2017-Oct-14 04:30N 38°01' E 024°01'0 0.1
2017-Oct-13 23:43N 38°01' E 024°01'314.4
2017-Oct-13 23:31N 38°00' E 024°04'919.0
2017-Oct-13 23:01N 37°56' E 024°15'3018.9
2017-Oct-13 21:26N 37°41' E 024°48'819.0
2017-Oct-13 21:00N 37°37' E 024°57'918.8
2017-Oct-13 20:30N 37°32' E 025°07'1019.1
2017-Oct-13 20:00N 37°28' E 025°18'1 2.8
2017-Oct-13 19:30N 37°28' E 025°19'612.9
2017-Oct-13 19:00N 37°31' E 025°12'4 7.3
2017-Oct-13 18:31N 37°32' E 025°08'1019.1
2017-Oct-13 18:00N 37°38' E 024°59'4514.9
2017-Oct-13 15:01N 37°60' E 024°09'019.0
2017-Oct-13 15:00N 37°60' E 024°09'6 1.1
2017-Oct-13 09:25N 38°01' E 024°01'615.0
2017-Oct-13 08:59N 37°59' E 024°08'918.3
2017-Oct-13 08:29N 37°56' E 024°20'2713.6
2017-Oct-13 06:30N 37°45' E 024°51'918.7
2017-Oct-13 06:00N 37°38' E 024°59'918.4
2017-Oct-13 05:31N 37°32' E 025°08'4 7.3
2017-Oct-13 05:00N 37°30' E 025°12'713.8
2017-Oct-13 04:30N 37°28' E 025°20'0 0.0
2017-Oct-13 04:00N 37°28' E 025°20'0 0.0
2017-Oct-13 03:30N 37°28' E 025°20'0 0.0
2017-Oct-13 03:00N 37°28' E 025°20'0 0.0
2017-Oct-13 02:30N 37°28' E 025°20'0 0.0
2017-Oct-13 02:00N 37°28' E 025°20'0 0.0
2017-Oct-13 01:30N 37°28' E 025°20'0 0.0
2017-Oct-13 01:00N 37°28' E 025°20'0 0.0
2017-Oct-13 00:30N 37°28' E 025°20'0 0.0
2017-Oct-13 00:00N 37°28' E 025°20'0 0.0
2017-Oct-12 23:30N 37°28' E 025°20'0 0.0
2017-Oct-12 23:00N 37°28' E 025°20'0 0.0
2017-Oct-12 22:30N 37°28' E 025°20'0 0.0
2017-Oct-12 22:00N 37°28' E 025°20'0 0.0
2017-Oct-12 21:30N 37°28' E 025°20'0 0.0
2017-Oct-12 21:00N 37°28' E 025°20'0 0.0
2017-Oct-12 20:30N 37°28' E 025°20'0 0.0
2017-Oct-12 20:00N 37°28' E 025°20'0 0.0
2017-Oct-12 19:30N 37°28' E 025°20'5 9.0
2017-Oct-12 19:00N 37°29' E 025°14'5 9.6
2017-Oct-12 18:30N 37°32' E 025°09'713.2
2017-Oct-12 18:00N 37°36' E 025°02'1019.2
2017-Oct-12 17:30N 37°42' E 024°54'4015.2
2017-Oct-12 14:52N 37°60' E 024°08'6 1.1
2017-Oct-12 09:28N 38°01' E 024°01'816.4
2017-Oct-12 09:01N 37°59' E 024°10'3514.1
2017-Oct-12 06:31N 37°45' E 024°51'015.7
2017-Oct-12 06:30N 37°45' E 024°51'1018.9
2017-Oct-12 06:00N 37°38' E 024°59'918.7
2017-Oct-12 05:30N 37°32' E 025°08'3 6.6
2017-Oct-12 05:00N 37°30' E 025°12'713.7
2017-Oct-12 04:31N 37°28' E 025°20'0 0.0
2017-Oct-12 04:01N 37°28' E 025°20'0 0.0
2017-Oct-12 03:31N 37°28' E 025°20'0 0.0
2017-Oct-12 03:00N 37°28' E 025°20'0 0.0
2017-Oct-12 02:31N 37°28' E 025°20'0 0.0
2017-Oct-12 02:00N 37°28' E 025°20'0 0.0
2017-Oct-12 01:30N 37°28' E 025°20'0 0.0
2017-Oct-12 01:01N 37°28' E 025°20'0 0.0
2017-Oct-12 00:31N 37°28' E 025°20'0 0.0
2017-Oct-12 00:01N 37°28' E 025°20'0 0.0
2017-Oct-11 23:30N 37°28' E 025°20'0 0.0
2017-Oct-11 23:00N 37°28' E 025°20'0 0.0
2017-Oct-11 22:30N 37°28' E 025°20'0 0.0
2017-Oct-11 22:01N 37°28' E 025°20'0 0.0
2017-Oct-11 21:31N 37°28' E 025°20'0 0.0
2017-Oct-11 21:00N 37°28' E 025°20'0 0.0
2017-Oct-11 20:30N 37°28' E 025°20'0 0.0
2017-Oct-11 20:01N 37°28' E 025°20'0 0.0
2017-Oct-11 19:30N 37°28' E 025°20'612.0
2017-Oct-11 19:01N 37°30' E 025°13'3 6.6
2017-Oct-11 18:30N 37°32' E 025°09'815.8
2017-Oct-11 18:00N 37°37' E 025°01'919.0
2017-Oct-11 17:30N 37°43' E 024°53'26 1.5
2017-Oct-11 00:00N 37°28' E 025°20'0 0.0
2017-Oct-10 23:30N 37°28' E 025°20'0 0.0
2017-Oct-10 23:00N 37°28' E 025°20'0 0.0
2017-Oct-10 22:30N 37°28' E 025°20'0 0.0
2017-Oct-10 22:00N 37°28' E 025°20'0 0.0
2017-Oct-10 21:30N 37°28' E 025°20'0 0.0
2017-Oct-10 21:00N 37°28' E 025°20'0 0.0
2017-Oct-10 20:30N 37°28' E 025°20'0 0.0
2017-Oct-10 20:00N 37°28' E 025°20'0 0.0
2017-Oct-10 19:30N 37°28' E 025°20'5 9.0
2017-Oct-10 19:00N 37°30' E 025°14'5 9.6
2017-Oct-10 18:31N 37°32' E 025°09'714.4
2017-Oct-10 18:00N 37°36' E 025°02'1018.9
2017-Oct-10 17:28N 37°43' E 024°53'3815.0
2017-Oct-10 14:54N 37°60' E 024°09'6 1.1
2017-Oct-10 09:14N 38°01' E 024°01'312.3
2017-Oct-10 09:00N 38°00' E 024°04'1019.2
2017-Oct-10 08:29N 37°57' E 024°16'3014.9
2017-Oct-10 06:29N 37°45' E 024°51'919.0
2017-Oct-10 06:00N 37°39' E 024°59'918.9
2017-Oct-10 05:30N 37°32' E 025°08'4 7.2
2017-Oct-10 05:01N 37°30' E 025°12'713.7
2017-Oct-10 04:30N 37°28' E 025°20'0 0.0
2017-Oct-10 04:00N 37°28' E 025°20'0 0.0
2017-Oct-10 03:30N 37°28' E 025°20'0 0.0
2017-Oct-10 03:00N 37°28' E 025°20'0 0.0
2017-Oct-10 02:30N 37°28' E 025°20'0 0.0
2017-Oct-10 02:00N 37°28' E 025°20'0 0.0
2017-Oct-10 01:30N 37°28' E 025°20'0 0.0
2017-Oct-10 01:00N 37°28' E 025°20'0 0.0
2017-Oct-10 00:30N 37°28' E 025°20'0 0.0
2017-Oct-10 00:00N 37°28' E 025°20'  
Track history (hours):
 
Tides and Currents Weather Stations Pressure Air Temp Water Temp Dewpoint Dewpoint Depression Visibility Wind Speed Wind Dir Waves Ship Positions

Theologos P .

Last reported at 2017-Oct-20 00:00 UTC. Time now 2017-Oct-20 00:03 UTC.
Position N 37°28' E 025°20'.

Length 118 m; draft 5 m.

Type: Passenger vessel. MMSI: 240521000.

Date/timePositionNaut miles runAvg speedWind from/ knotsBaromVisibWave heightAir tempDewpointWater temp
2017-Oct-20 00:00N 37°28' E 025°20'0 0.0
2017-Oct-19 23:30N 37°28' E 025°20'0 0.0
2017-Oct-19 23:00N 37°28' E 025°20'0 0.0
2017-Oct-19 22:30N 37°28' E 025°20'0 0.0
2017-Oct-19 22:00N 37°28' E 025°20'0 0.0
2017-Oct-19 21:30N 37°28' E 025°20'0 0.0
2017-Oct-19 21:00N 37°28' E 025°20'0 0.0
2017-Oct-19 20:30N 37°28' E 025°20'0 0.0
2017-Oct-19 20:00N 37°28' E 025°20'1 1.7
2017-Oct-19 19:17N 37°28' E 025°18'412.8
2017-Oct-19 19:00N 37°30' E 025°14'4 9.0
2017-Oct-19 18:30N 37°32' E 025°09'815.4
2017-Oct-19 18:01N 37°36' E 025°01'918.8
2017-Oct-19 17:31N 37°43' E 024°53'3914.9
2017-Oct-19 14:53N 37°59' E 024°08'6 1.0
2017-Oct-19 09:13N 38°01' E 024°01'416.6
2017-Oct-19 09:00N 38°00' E 024°05'1018.9
2017-Oct-19 08:29N 37°57' E 024°17'2915.0
2017-Oct-19 06:31N 37°45' E 024°51'019.9
2017-Oct-19 06:31N 37°45' E 024°51'1019.3
2017-Oct-19 06:00N 37°38' E 024°60'918.4
2017-Oct-19 05:31N 37°32' E 025°09'3 6.6
2017-Oct-19 05:00N 37°30' E 025°12'713.1
2017-Oct-19 04:30N 37°28' E 025°20'0 0.0
2017-Oct-19 04:00N 37°28' E 025°20'0 0.0
2017-Oct-19 03:30N 37°28' E 025°20'0 0.0
2017-Oct-19 03:00N 37°28' E 025°20'0 0.0
2017-Oct-19 02:30N 37°28' E 025°20'0 0.0
2017-Oct-19 02:00N 37°28' E 025°20'0 0.0
2017-Oct-19 01:30N 37°28' E 025°20'0 0.0
2017-Oct-19 01:00N 37°28' E 025°20'0 0.0
2017-Oct-19 00:30N 37°28' E 025°20'0 0.0
2017-Oct-19 00:00N 37°28' E 025°20'0 0.0
2017-Oct-18 23:30N 37°28' E 025°20'0 0.0
2017-Oct-18 23:00N 37°28' E 025°20'0 0.0
2017-Oct-18 22:30N 37°28' E 025°20'0 0.0
2017-Oct-18 22:00N 37°28' E 025°20'0 0.0
2017-Oct-18 21:30N 37°28' E 025°20'0 0.0
2017-Oct-18 21:00N 37°28' E 025°20'0 0.0
2017-Oct-18 20:30N 37°28' E 025°20'0 0.0
2017-Oct-18 20:01N 37°28' E 025°20'0 0.0
2017-Oct-18 19:30N 37°28' E 025°20'713.6
2017-Oct-18 19:00N 37°31' E 025°12'3 6.6
2017-Oct-18 18:31N 37°32' E 025°08'918.6
2017-Oct-18 18:00N 37°38' E 024°59'918.1
2017-Oct-18 17:30N 37°45' E 024°51'3314.3
2017-Oct-18 15:10N 37°58' E 024°13'418.0
2017-Oct-18 14:58N 37°60' E 024°08'6 1.1
2017-Oct-18 09:18N 38°01' E 024°01'414.4
2017-Oct-18 09:00N 38°00' E 024°06'1018.8
2017-Oct-18 08:30N 37°57' E 024°17'2914.8
2017-Oct-18 06:32N 37°45' E 024°51'120.1
2017-Oct-18 06:30N 37°44' E 024°51'1019.4
2017-Oct-18 06:00N 37°38' E 024°60'918.2
2017-Oct-18 05:30N 37°32' E 025°09'4 7.8
2017-Oct-18 05:00N 37°30' E 025°13'611.2
2017-Oct-18 04:31N 37°28' E 025°20'0 0.0
2017-Oct-18 04:00N 37°28' E 025°20'0 0.0
2017-Oct-18 03:31N 37°28' E 025°20'0 0.0
2017-Oct-18 03:01N 37°28' E 025°20'0 0.0
2017-Oct-18 02:31N 37°28' E 025°20'0 0.0
2017-Oct-18 02:01N 37°28' E 025°20'0 0.0
2017-Oct-18 01:30N 37°28' E 025°20'0 0.0
2017-Oct-18 01:00N 37°28' E 025°20'0 0.0
2017-Oct-18 00:30N 37°28' E 025°20'0 0.0
2017-Oct-18 00:01N 37°28' E 025°20'0 0.0
2017-Oct-17 23:30N 37°28' E 025°20'0 0.0
2017-Oct-17 23:00N 37°28' E 025°20'0 0.0
2017-Oct-17 22:30N 37°28' E 025°20'0 0.0
2017-Oct-17 22:01N 37°28' E 025°20'0 0.0
2017-Oct-17 21:30N 37°28' E 025°20'0 0.0
2017-Oct-17 21:01N 37°28' E 025°20'0 0.0
2017-Oct-17 20:30N 37°28' E 025°20'0 0.0
2017-Oct-17 20:00N 37°28' E 025°20'1 2.4
2017-Oct-17 19:30N 37°28' E 025°18'816.1
2017-Oct-17 19:00N 37°32' E 025°09'2 3.6
2017-Oct-17 18:31N 37°33' E 025°07'1019.3
2017-Oct-17 18:00N 37°39' E 024°58'4815.4
2017-Oct-17 14:54N 38°01' E 024°04'3 0.5
2017-Oct-17 09:21N 38°01' E 024°01'4314.9
2017-Oct-17 06:30N 37°45' E 024°51'1018.9
2017-Oct-17 05:59N 37°38' E 024°59'918.4
2017-Oct-17 05:31N 37°32' E 025°08'4 8.3
2017-Oct-17 05:01N 37°30' E 025°12'612.7
2017-Oct-17 04:30N 37°28' E 025°19'0 0.0
2017-Oct-17 04:00N 37°28' E 025°19'0 0.0
2017-Oct-17 03:30N 37°28' E 025°19'0 0.0
2017-Oct-17 03:00N 37°28' E 025°19'0 0.0
2017-Oct-17 02:30N 37°28' E 025°19'0 0.0
2017-Oct-17 02:00N 37°28' E 025°19'0 0.0
2017-Oct-17 01:30N 37°28' E 025°19'0 0.0
2017-Oct-17 01:00N 37°28' E 025°19'0 0.0
2017-Oct-17 00:30N 37°28' E 025°19'0 0.0
2017-Oct-17 00:00N 37°28' E 025°19'0 0.0
2017-Oct-16 23:30N 37°28' E 025°19'0 0.0
2017-Oct-16 23:00N 37°28' E 025°19'0 0.0
2017-Oct-16 22:30N 37°28' E 025°19'0 0.0
2017-Oct-16 22:00N 37°28' E 025°19'0 0.0
2017-Oct-16 21:30N 37°28' E 025°19'0 0.0
2017-Oct-16 21:00N 37°28' E 025°19'0 0.0
2017-Oct-16 20:30N 37°28' E 025°19'0 0.0
2017-Oct-16 20:00N 37°28' E 025°19'0 0.0
2017-Oct-16 19:30N 37°28' E 025°19'2 4.5
2017-Oct-16 19:01N 37°29' E 025°17'713.8
2017-Oct-16 18:30N 37°32' E 025°09'713.0
2017-Oct-16 18:00N 37°36' E 025°02'1019.3
2017-Oct-16 17:30N 37°42' E 024°54'3815.0
2017-Oct-16 15:00N 37°59' E 024°11'8 1.5
2017-Oct-16 09:22N 38°01' E 024°01'615.5
2017-Oct-16 09:00N 37°60' E 024°07'1118.5
2017-Oct-16 08:24N 37°56' E 024°21'2613.8
2017-Oct-16 06:31N 37°45' E 024°51'019.5
2017-Oct-16 06:31N 37°45' E 024°51'1018.8
2017-Oct-16 06:00N 37°38' E 024°59'918.0
2017-Oct-16 05:31N 37°32' E 025°08'4 7.2
2017-Oct-16 05:01N 37°30' E 025°12'713.6
2017-Oct-16 04:30N 37°28' E 025°20'0 0.0
2017-Oct-16 04:00N 37°28' E 025°20'0 0.0
2017-Oct-16 03:31N 37°28' E 025°20'0 0.0
2017-Oct-16 03:00N 37°28' E 025°20'0 0.0
2017-Oct-16 02:30N 37°28' E 025°20'0 0.0
2017-Oct-16 02:00N 37°28' E 025°20'0 0.0
2017-Oct-16 01:30N 37°28' E 025°20'0 0.0
2017-Oct-16 01:00N 37°28' E 025°20'0 0.0
2017-Oct-16 00:30N 37°28' E 025°20'0 0.0
2017-Oct-16 00:00N 37°28' E 025°20'0 0.0
2017-Oct-15 23:30N 37°28' E 025°20'0 0.0
2017-Oct-15 23:00N 37°28' E 025°20'0 0.0
2017-Oct-15 22:30N 37°28' E 025°20'0 0.0
2017-Oct-15 22:00N 37°28' E 025°20'0 0.0
2017-Oct-15 21:30N 37°28' E 025°20'0 0.0
2017-Oct-15 21:00N 37°28' E 025°20'0 0.0
2017-Oct-15 20:30N 37°28' E 025°20'0 0.8
2017-Oct-15 20:01N 37°28' E 025°19'917.8
2017-Oct-15 19:31N 37°32' E 025°09'510.1
2017-Oct-15 19:00N 37°34' E 025°03'1019.4
2017-Oct-15 18:30N 37°41' E 024°55'4115.4
2017-Oct-15 15:52N 37°59' E 024°09'7 6.3
2017-Oct-15 14:49N 38°01' E 024°01'1417.1
2017-Oct-15 14:00N 37°57' E 024°17'2913.9
2017-Oct-15 11:55N 37°45' E 024°51'918.4
2017-Oct-15 11:27N 37°39' E 024°58'817.9
2017-Oct-15 11:00N 37°33' E 025°06'3 6.2
2017-Oct-15 10:30N 37°32' E 025°09'815.6
2017-Oct-15 10:00N 37°28' E 025°18'2 3.0
2017-Oct-15 09:30N 37°28' E 025°20'0 0.0
2017-Oct-15 09:00N 37°28' E 025°20'0 0.0
2017-Oct-15 08:30N 37°28' E 025°20'0 0.0
2017-Oct-15 08:00N 37°28' E 025°20'0 0.0
2017-Oct-15 07:30N 37°28' E 025°20'0 0.0
2017-Oct-15 07:00N 37°28' E 025°20'0 0.0
2017-Oct-15 06:30N 37°28' E 025°20'0 0.0
2017-Oct-15 06:00N 37°28' E 025°20'0 0.0
2017-Oct-15 05:30N 37°28' E 025°20'0 0.0
2017-Oct-15 05:00N 37°28' E 025°20'0 0.0
2017-Oct-15 04:30N 37°28' E 025°20'0 0.0
2017-Oct-15 04:00N 37°28' E 025°20'0 0.0
2017-Oct-15 03:30N 37°28' E 025°20'0 0.0
2017-Oct-15 03:00N 37°28' E 025°20'0 0.0
2017-Oct-15 02:30N 37°28' E 025°20'0 0.0
2017-Oct-15 02:00N 37°28' E 025°20'0 0.0
2017-Oct-15 01:30N 37°28' E 025°20'0 0.0
2017-Oct-15 01:00N 37°28' E 025°20'0 0.0
2017-Oct-15 00:30N 37°28' E 025°20'0 0.0
2017-Oct-15 00:00N 37°28' E 025°20'0 0.0
2017-Oct-14 23:30N 37°28' E 025°20'0 0.0
2017-Oct-14 23:00N 37°28' E 025°20'0 0.0
2017-Oct-14 22:30N 37°28' E 025°20'0 0.0
2017-Oct-14 22:00N 37°28' E 025°20'0 0.0
2017-Oct-14 21:30N 37°28' E 025°20'0 0.0
2017-Oct-14 21:00N 37°28' E 025°20'0 0.0
2017-Oct-14 20:30N 37°28' E 025°20'0 0.0
2017-Oct-14 20:01N 37°28' E 025°20'0 0.1
2017-Oct-14 19:31N 37°28' E 025°20'815.2
2017-Oct-14 19:00N 37°31' E 025°11'4 7.6
2017-Oct-14 18:30N 37°33' E 025°07'1419.2
2017-Oct-14 17:47N 37°42' E 024°54'4115.1
2017-Oct-14 15:05N 37°60' E 024°07'218.5
2017-Oct-14 15:00N 38°00' E 024°05'4 4.2
2017-Oct-14 14:08N 38°01' E 024°01'1 7.7
2017-Oct-14 14:00N 38°01' E 024°02'1119.3
2017-Oct-14 13:28N 37°58' E 024°14'3115.3
2017-Oct-14 11:25N 37°45' E 024°51'919.0
2017-Oct-14 10:57N 37°39' E 024°58'818.3
2017-Oct-14 10:30N 37°33' E 025°06'4 7.8
2017-Oct-14 10:01N 37°31' E 025°10'815.8
2017-Oct-14 09:31N 37°28' E 025°19'0 0.0
2017-Oct-14 09:00N 37°28' E 025°19'715.0
2017-Oct-14 08:30N 37°31' E 025°11'4 8.5
2017-Oct-14 08:00N 37°33' E 025°06'5316.5
2017-Oct-14 04:48N 37°60' E 024°08'619.0
2017-Oct-14 04:30N 38°01' E 024°01'0 0.1
2017-Oct-13 23:43N 38°01' E 024°01'314.4
2017-Oct-13 23:31N 38°00' E 024°04'919.0
2017-Oct-13 23:01N 37°56' E 024°15'3018.9
2017-Oct-13 21:26N 37°41' E 024°48'819.0
2017-Oct-13 21:00N 37°37' E 024°57'918.8
2017-Oct-13 20:30N 37°32' E 025°07'1019.1
2017-Oct-13 20:00N 37°28' E 025°18'1 2.8
2017-Oct-13 19:30N 37°28' E 025°19'612.9
2017-Oct-13 19:00N 37°31' E 025°12'4 7.3
2017-Oct-13 18:31N 37°32' E 025°08'1019.1
2017-Oct-13 18:00N 37°38' E 024°59'4514.9
2017-Oct-13 15:01N 37°60' E 024°09'019.0
2017-Oct-13 15:00N 37°60' E 024°09'6 1.1
2017-Oct-13 09:25N 38°01' E 024°01'615.0
2017-Oct-13 08:59N 37°59' E 024°08'918.3
2017-Oct-13 08:29N 37°56' E 024°20'2713.6
2017-Oct-13 06:30N 37°45' E 024°51'918.7
2017-Oct-13 06:00N 37°38' E 024°59'918.4
2017-Oct-13 05:31N 37°32' E 025°08'4 7.3
2017-Oct-13 05:00N 37°30' E 025°12'713.8
2017-Oct-13 04:30N 37°28' E 025°20'0 0.0
2017-Oct-13 04:00N 37°28' E 025°20'0 0.0
2017-Oct-13 03:30N 37°28' E 025°20'0 0.0
2017-Oct-13 03:00N 37°28' E 025°20'0 0.0
2017-Oct-13 02:30N 37°28' E 025°20'0 0.0
2017-Oct-13 02:00N 37°28' E 025°20'0 0.0
2017-Oct-13 01:30N 37°28' E 025°20'0 0.0
2017-Oct-13 01:00N 37°28' E 025°20'0 0.0
2017-Oct-13 00:30N 37°28' E 025°20'0 0.0
2017-Oct-13 00:00N 37°28' E 025°20'0 0.0
2017-Oct-12 23:30N 37°28' E 025°20'0 0.0
2017-Oct-12 23:00N 37°28' E 025°20'0 0.0
2017-Oct-12 22:30N 37°28' E 025°20'0 0.0
2017-Oct-12 22:00N 37°28' E 025°20'0 0.0
2017-Oct-12 21:30N 37°28' E 025°20'0 0.0
2017-Oct-12 21:00N 37°28' E 025°20'0 0.0
2017-Oct-12 20:30N 37°28' E 025°20'0 0.0
2017-Oct-12 20:00N 37°28' E 025°20'0 0.0
2017-Oct-12 19:30N 37°28' E 025°20'5 9.0
2017-Oct-12 19:00N 37°29' E 025°14'5 9.6
2017-Oct-12 18:30N 37°32' E 025°09'713.2
2017-Oct-12 18:00N 37°36' E 025°02'1019.2
2017-Oct-12 17:30N 37°42' E 024°54'4015.2
2017-Oct-12 14:52N 37°60' E 024°08'6 1.1
2017-Oct-12 09:28N 38°01' E 024°01'816.4
2017-Oct-12 09:01N 37°59' E 024°10'3514.1
2017-Oct-12 06:31N 37°45' E 024°51'015.7
2017-Oct-12 06:30N 37°45' E 024°51'1018.9
2017-Oct-12 06:00N 37°38' E 024°59'918.7
2017-Oct-12 05:30N 37°32' E 025°08'3 6.6
2017-Oct-12 05:00N 37°30' E 025°12'713.7
2017-Oct-12 04:31N 37°28' E 025°20'0 0.0
2017-Oct-12 04:01N 37°28' E 025°20'0 0.0
2017-Oct-12 03:31N 37°28' E 025°20'0 0.0
2017-Oct-12 03:00N 37°28' E 025°20'0 0.0
2017-Oct-12 02:31N 37°28' E 025°20'0 0.0
2017-Oct-12 02:00N 37°28' E 025°20'0 0.0
2017-Oct-12 01:30N 37°28' E 025°20'0 0.0
2017-Oct-12 01:01N 37°28' E 025°20'0 0.0
2017-Oct-12 00:31N 37°28' E 025°20'0 0.0
2017-Oct-12 00:01N 37°28' E 025°20'0 0.0
2017-Oct-11 23:30N 37°28' E 025°20'0 0.0
2017-Oct-11 23:00N 37°28' E 025°20'0 0.0
2017-Oct-11 22:30N 37°28' E 025°20'0 0.0
2017-Oct-11 22:01N 37°28' E 025°20'0 0.0
2017-Oct-11 21:31N 37°28' E 025°20'0 0.0
2017-Oct-11 21:00N 37°28' E 025°20'0 0.0
2017-Oct-11 20:30N 37°28' E 025°20'0 0.0
2017-Oct-11 20:01N 37°28' E 025°20'0 0.0
2017-Oct-11 19:30N 37°28' E 025°20'612.0
2017-Oct-11 19:01N 37°30' E 025°13'3 6.6
2017-Oct-11 18:30N 37°32' E 025°09'815.8
2017-Oct-11 18:00N 37°37' E 025°01'919.0
2017-Oct-11 17:30N 37°43' E 024°53'26 1.5
2017-Oct-11 00:00N 37°28' E 025°20'0 0.0
2017-Oct-10 23:30N 37°28' E 025°20'0 0.0
2017-Oct-10 23:00N 37°28' E 025°20'0 0.0
2017-Oct-10 22:30N 37°28' E 025°20'0 0.0
2017-Oct-10 22:00N 37°28' E 025°20'0 0.0
2017-Oct-10 21:30N 37°28' E 025°20'0 0.0
2017-Oct-10 21:00N 37°28' E 025°20'0 0.0
2017-Oct-10 20:30N 37°28' E 025°20'0 0.0
2017-Oct-10 20:00N 37°28' E 025°20'0 0.0
2017-Oct-10 19:30N 37°28' E 025°20'5 9.0
2017-Oct-10 19:00N 37°30' E 025°14'5 9.6
2017-Oct-10 18:31N 37°32' E 025°09'714.4
2017-Oct-10 18:00N 37°36' E 025°02'1018.9
2017-Oct-10 17:28N 37°43' E 024°53'3815.0
2017-Oct-10 14:54N 37°60' E 024°09'6 1.1
2017-Oct-10 09:14N 38°01' E 024°01'312.3
2017-Oct-10 09:00N 38°00' E 024°04'1019.2
2017-Oct-10 08:29N 37°57' E 024°16'3014.9
2017-Oct-10 06:29N 37°45' E 024°51'919.0
2017-Oct-10 06:00N 37°39' E 024°59'918.9
2017-Oct-10 05:30N 37°32' E 025°08'4 7.2
2017-Oct-10 05:01N 37°30' E 025°12'713.7
2017-Oct-10 04:30N 37°28' E 025°20'0 0.0
2017-Oct-10 04:00N 37°28' E 025°20'0 0.0
2017-Oct-10 03:30N 37°28' E 025°20'0 0.0
2017-Oct-10 03:00N 37°28' E 025°20'0 0.0
2017-Oct-10 02:30N 37°28' E 025°20'0 0.0
2017-Oct-10 02:00N 37°28' E 025°20'0 0.0
2017-Oct-10 01:30N 37°28' E 025°20'0 0.0
2017-Oct-10 01:00N 37°28' E 025°20'0 0.0
2017-Oct-10 00:30N 37°28' E 025°20'0 0.0
2017-Oct-10 00:00N 37°28' E 025°20'  

Dump ship's entire track history